Time;durP1;ratioP1;P1;durP2;ratioP2;P2;SDS_P1;SDS_P2;PMS_P1;PMS_P2;Temp;Humidity;BMP_temperature;BMP_pressure;BME280_temperature;BME280_humidity;BME280_pressure;Samples;Min_cycle;Max_cycle;Signal;HPM_P1;HPM_P2
2023/08/13 00:01:26;;;;;;;2.75;1.08;;;;;;;24.25;55.21;101722.03;5087697;28;20491;-72
2023/08/13 00:03:52;;;;;;;4.75;1.60;;;;;;;24.26;55.39;101713.03;5088504;28;20102;-72
2023/08/13 00:06:17;;;;;;;6.18;1.75;;;;;;;23.21;60.07;101718.41;5088991;28;20043;-71
2023/08/13 00:08:43;;;;;;;5.80;0.98;;;;;;;24.25;56.68;101716.69;5085345;28;20077;-72
2023/08/13 00:11:11;;;;;;;3.65;0.73;;;;;;;24.29;55.89;101720.03;5087286;28;20035;-71
2023/08/13 00:13:37;;;;;;;8.05;1.10;;;;;;;25.18;53.32;101701.72;5088973;28;20452;-72
2023/08/13 00:16:03;;;;;;;7.30;1.13;;;;;;;24.92;53.53;101695.19;5088331;28;20098;-72
2023/08/13 00:18:29;;;;;;;1.23;0.70;;;;;;;24.17;56.24;101693.03;5088242;28;20039;-72
2023/08/13 00:20:55;;;;;;;6.53;1.20;;;;;;;24.94;53.77;101695.13;5088249;28;20401;-72
2023/08/13 00:23:20;;;;;;;2.35;0.85;;;;;;;24.84;53.65;101687.63;5080581;28;20024;-72
2023/08/13 00:25:46;;;;;;;6.75;2.05;;;;;;;24.86;54.48;101684.84;5079059;28;20092;-72
2023/08/13 00:28:11;;;;;;;9.05;1.27;;;;;;;23.99;57.29;101694.03;5088019;28;20475;-72
2023/08/13 00:30:36;;;;;;;7.60;1.20;;;;;;;23.79;57.87;101703.91;5086953;28;20072;-71
2023/08/13 00:33:02;;;;;;;5.25;1.00;;;;;;;24.51;54.83;101687.66;5073493;28;20039;-71
2023/08/13 00:35:27;;;;;;;8.15;1.85;;;;;;;25.09;53.58;101699.56;5091818;28;20114;-72
2023/08/13 00:37:53;;;;;;;9.00;1.58;;;;;;;24.75;54.17;101698.81;5092291;28;20028;-72
2023/08/13 00:40:18;;;;;;;5.05;1.20;;;;;;;24.32;55.62;101690.50;5090869;28;20032;-71
2023/08/13 00:42:44;;;;;;;14.52;1.65;;;;;;;24.00;57.60;101701.09;5091166;28;20043;-72
2023/08/13 00:45:09;;;;;;;9.80;2.42;;;;;;;24.13;56.61;101702.16;5091501;28;20542;-72
2023/08/13 00:47:36;;;;;;;8.07;1.55;;;;;;;24.78;55.16;101693.28;5073267;28;20492;-71
2023/08/13 00:50:05;;;;;;;3.08;1.02;;;;;;;24.75;55.21;101698.81;5074208;28;20017;-72
2023/08/13 00:52:32;;;;;;;7.63;1.30;;;;;;;24.38;55.44;101693.66;5092209;28;20151;-72
2023/08/13 00:54:57;;;;;;;9.57;1.33;;;;;;;24.65;55.91;101698.47;5089498;28;20019;-72
2023/08/13 00:57:23;;;;;;;8.80;1.45;;;;;;;24.28;56.64;101694.28;5086578;28;20060;-72
2023/08/13 00:59:49;;;;;;;3.15;1.15;;;;;;;25.13;54.25;101695.78;5085870;28;20476;-72
2023/08/13 01:02:15;;;;;;;4.95;1.13;;;;;;;24.24;57.22;101704.25;5091066;28;20042;-72
2023/08/13 01:04:41;;;;;;;9.52;1.70;;;;;;;25.30;53.53;101693.94;5092433;28;20440;-72
2023/08/13 01:07:27;;;;;;;4.53;1.33;;;;;;;24.63;55.31;101691.50;5091346;28;20032;-72
2023/08/13 01:10:09;;;;;;;5.50;1.23;;;;;;;24.88;54.44;101690.97;5091706;28;20059;-73
2023/08/13 01:12:59;;;;;;;3.00;1.50;;;;;;;23.77;57.85;101699.59;5090804;28;20110;-72
2023/08/13 01:15:32;;;;;;;5.82;1.50;;;;;;;24.95;54.15;101691.47;5078202;28;20027;-72
2023/08/13 01:17:59;;;;;;;2.65;1.35;;;;;;;24.56;54.31;101694.50;5090709;28;20070;-72
2023/08/13 01:20:32;;;;;;;6.07;1.58;;;;;;;23.71;58.08;101695.44;5091562;28;20031;-72
2023/08/13 01:22:58;;;;;;;14.50;2.10;;;;;;;23.87;57.50;101690.16;5079600;28;20071;-72
2023/08/13 01:25:26;;;;;;;8.23;1.58;;;;;;;24.52;55.02;101700.94;5071281;28;20419;-72
2023/08/13 01:28:13;;;;;;;7.85;1.58;;;;;;;23.95;57.63;101697.81;5074943;28;20114;-71
2023/08/13 01:30:44;;;;;;;7.70;2.25;;;;;;;23.26;61.55;101699.50;5086382;28;20039;-71
2023/08/13 01:33:14;;;;;;;10.43;2.10;;;;;;;23.74;60.35;101695.31;5090902;28;20494;-71
2023/08/13 01:35:42;;;;;;;5.32;1.55;;;;;;;24.09;58.23;101694.41;5090918;28;20097;-71
2023/08/13 01:38:09;;;;;;;8.40;1.60;;;;;;;23.18;62.18;101695.44;5090193;28;20016;-72
2023/08/13 01:40:37;;;;;;;4.68;1.33;;;;;;;23.95;58.98;101697.81;5090399;28;20032;-72
2023/08/13 01:43:02;;;;;;;3.83;1.48;;;;;;;23.72;60.67;101691.84;5088501;28;20027;-72
2023/08/13 01:45:28;;;;;;;4.53;1.48;;;;;;;22.86;65.39;101699.63;5087091;28;20024;-72
2023/08/13 01:47:53;;;;;;;9.20;1.77;;;;;;;23.33;63.55;101690.28;5086586;28;20063;-72
2023/08/13 01:50:20;;;;;;;3.03;1.33;;;;;;;24.39;58.50;101686.53;5091698;28;20103;-72
2023/08/13 01:52:46;;;;;;;12.25;2.15;;;;;;;23.52;63.14;101691.06;5090052;28;20051;-72
2023/08/13 01:55:12;;;;;;;3.40;1.23;;;;;;;22.93;65.15;101692.19;5090372;28;20452;-72
2023/08/13 01:57:37;;;;;;;6.40;1.35;;;;;;;23.58;62.16;101686.38;5083650;28;20056;-72
2023/08/13 02:00:03;;;;;;;11.45;2.58;;;;;;;23.30;64.40;101690.41;5053490;28;20028;-72
2023/08/13 02:02:29;;;;;;;13.63;1.63;;;;;;;23.25;64.79;101693.31;5070832;28;20094;-72
2023/08/13 02:04:54;;;;;;;7.18;1.65;;;;;;;24.32;59.66;101674.47;5059937;28;20036;-72
2023/08/13 02:07:20;;;;;;;7.70;1.63;;;;;;;24.35;59.71;101679.63;5053031;28;20039;-70
2023/08/13 02:09:45;;;;;;;8.13;1.40;;;;;;;23.33;64.12;101684.94;5052013;28;20044;-71
2023/08/13 02:12:10;;;;;;;8.13;1.55;;;;;;;24.00;62.09;101679.72;5052877;28;20082;-72
2023/08/13 02:14:36;;;;;;;7.20;1.15;;;;;;;24.11;59.79;101688.03;5070377;28;20043;-72
2023/08/13 02:17:01;;;;;;;11.38;1.98;;;;;;;23.35;63.19;101678.56;5053556;28;20028;-72
2023/08/13 02:19:27;;;;;;;5.85;1.60;;;;;;;22.91;65.74;101678.09;5051195;28;20028;-72
2023/08/13 02:21:52;;;;;;;8.52;1.50;;;;;;;22.61;67.88;101681.28;5049271;28;20028;-72
2023/08/13 02:24:17;;;;;;;4.93;1.20;;;;;;;24.01;61.00;101681.47;5033511;28;20056;-72
2023/08/13 02:26:43;;;;;;;3.90;1.00;;;;;;;23.86;61.32;101672.41;5032383;28;20105;-70
2023/08/13 02:29:08;;;;;;;12.73;2.13;;;;;;;23.57;62.97;101676.63;5033612;28;20024;-71
2023/08/13 02:31:35;;;;;;;4.22;1.10;;;;;;;23.80;60.72;101684.28;5033542;28;20021;-71
2023/08/13 02:34:00;;;;;;;8.70;1.38;;;;;;;23.63;61.52;101677.19;5032890;28;20036;-72
2023/08/13 02:36:26;;;;;;;7.32;1.42;;;;;;;23.21;64.09;101689.06;5056782;28;20078;-72
2023/08/13 02:38:51;;;;;;;5.75;0.93;;;;;;;23.51;62.95;101680.47;5051503;28;20031;-72
2023/08/13 02:41:17;;;;;;;4.15;1.20;;;;;;;23.07;65.87;101679.06;5052968;28;20054;-72
2023/08/13 02:43:55;;;;;;;3.90;1.45;;;;;;;23.55;64.36;101671.38;5052664;28;20036;-72
2023/08/13 02:46:25;;;;;;;7.88;1.27;;;;;;;23.55;63.01;101677.56;5050710;28;20051;-72
2023/08/13 02:48:55;;;;;;;3.95;1.10;;;;;;;24.41;58.24;101668.59;5052847;28;20031;-72
2023/08/13 02:51:22;;;;;;;5.40;1.30;;;;;;;23.51;61.78;101667.13;5047674;28;20538;-72
2023/08/13 02:53:48;;;;;;;6.68;1.33;;;;;;;23.27;64.95;101671.91;5056420;28;20029;-72
2023/08/13 02:56:13;;;;;;;16.13;1.80;;;;;;;22.99;66.16;101678.59;5050636;28;20036;-72
2023/08/13 02:58:38;;;;;;;5.13;1.90;;;;;;;23.31;64.04;101668.13;5079832;28;20051;-71
2023/08/13 03:01:04;;;;;;;4.03;1.30;;;;;;;23.42;63.63;101668.44;5089224;28;20024;-72
2023/08/13 03:03:30;;;;;;;9.50;1.30;;;;;;;23.95;60.38;101671.13;5083337;28;20043;-72
2023/08/13 03:05:56;;;;;;;5.95;0.90;;;;;;;23.66;61.76;101663.66;5069093;28;20060;-72
2023/08/13 03:08:22;;;;;;;7.40;1.30;;;;;;;23.21;63.95;101671.25;5085284;28;20028;-72
2023/08/13 03:10:47;;;;;;;9.02;1.45;;;;;;;23.47;65.13;101671.75;5089382;28;20107;-72
2023/08/13 03:13:12;;;;;;;10.75;2.00;;;;;;;22.65;66.12;101681.06;5088687;28;20020;-72
2023/08/13 03:15:38;;;;;;;5.10;1.20;;;;;;;23.35;64.18;101672.38;5088772;28;20019;-71
2023/08/13 03:18:04;;;;;;;4.20;1.98;;;;;;;22.68;68.56;101669.41;5088174;28;20377;-71
2023/08/13 03:20:29;;;;;;;7.95;1.40;;;;;;;23.52;63.66;101675.06;5089440;28;20423;-72
2023/08/13 03:22:55;;;;;;;13.77;1.85;;;;;;;23.17;65.65;101680.34;5087926;28;20031;-72
2023/08/13 03:25:20;;;;;;;4.22;2.22;;;;;;;23.68;61.06;101674.25;5088521;28;20058;-71
2023/08/13 03:27:48;;;;;;;5.85;1.35;;;;;;;23.66;62.21;101668.16;5087725;28;20036;-72
2023/08/13 03:30:13;;;;;;;3.20;1.05;;;;;;;23.63;62.33;101668.28;5088261;28;20103;-72
2023/08/13 03:32:38;;;;;;;3.70;1.23;;;;;;;23.96;60.98;101670.16;5089539;28;20103;-71
2023/08/13 03:35:04;;;;;;;5.20;1.35;;;;;;;23.73;63.43;101666.88;5088800;28;20422;-71
2023/08/13 03:37:30;;;;;;;5.18;1.10;;;;;;;24.39;59.99;101665.16;5088859;28;20376;-71
2023/08/13 03:39:55;;;;;;;9.75;1.10;;;;;;;24.15;58.25;101668.25;5089051;28;20020;-72
2023/08/13 03:42:21;;;;;;;3.92;1.35;;;;;;;23.30;63.22;101663.75;5088080;28;20059;-72
2023/08/13 03:44:46;;;;;;;7.80;2.38;;;;;;;24.35;59.15;101663.63;5087842;28;20122;-71
2023/08/13 03:47:12;;;;;;;8.77;1.50;;;;;;;24.44;59.03;101665.78;5088907;28;20093;-72
2023/08/13 03:49:37;;;;;;;3.55;1.52;;;;;;;24.61;57.96;101663.97;5088221;28;20012;-71
2023/08/13 03:52:03;;;;;;;6.43;1.35;;;;;;;24.60;57.66;101667.59;5088562;28;20027;-71
2023/08/13 03:54:30;;;;;;;5.20;1.15;;;;;;;24.82;56.23;101668.13;5088167;28;20028;-72
2023/08/13 03:56:55;;;;;;;1.80;1.05;;;;;;;24.29;59.03;101679.97;5086096;28;20097;-72
2023/08/13 03:59:20;;;;;;;1.65;1.08;;;;;;;24.63;57.38;101678.97;5052333;28;20021;-72
2023/08/13 04:01:46;;;;;;;6.15;1.38;;;;;;;23.92;61.24;101676.59;5051144;28;20032;-72
2023/08/13 04:04:11;;;;;;;8.02;1.45;;;;;;;23.52;62.95;101674.19;5051058;28;20069;-72
2023/08/13 04:06:37;;;;;;;7.55;1.55;;;;;;;23.23;65.08;101678.34;5050660;28;20101;-72
2023/08/13 04:09:03;;;;;;;4.78;1.33;;;;;;;23.77;61.96;101681.78;5050006;28;20032;-72
2023/08/13 04:11:29;;;;;;;11.48;1.35;;;;;;;23.61;63.48;101672.84;5073193;28;20027;-72
2023/08/13 04:13:54;;;;;;;8.32;1.40;;;;;;;23.74;62.44;101684.63;5055064;28;20033;-72
2023/08/13 04:16:19;;;;;;;7.13;1.30;;;;;;;24.28;58.53;101683.59;5054235;28;20129;-72
2023/08/13 04:18:45;;;;;;;25.00;2.42;;;;;;;24.14;61.06;101690.53;5072579;28;20393;-72
2023/08/13 04:21:11;;;;;;;7.15;1.55;;;;;;;23.41;63.63;101682.75;5055792;28;20032;-72
2023/08/13 04:23:36;;;;;;;5.78;1.20;;;;;;;23.45;62.55;101681.66;5050982;28;20538;-72
2023/08/13 04:26:01;;;;;;;6.03;1.52;;;;;;;23.05;66.61;101680.94;5053509;28;20029;-72
2023/08/13 04:28:27;;;;;;;4.97;1.10;;;;;;;24.35;61.07;101685.84;5054836;28;20500;-72
2023/08/13 04:30:52;;;;;;;4.80;1.60;;;;;;;23.43;64.13;101691.53;5054226;28;20024;-72
2023/08/13 04:33:18;;;;;;;9.02;1.58;;;;;;;23.34;66.01;101691.97;5072912;28;20025;-72
2023/08/13 04:35:43;;;;;;;4.28;1.60;;;;;;;23.67;63.59;101688.53;5055111;28;20476;-72
2023/08/13 04:38:08;;;;;;;7.15;1.35;;;;;;;24.40;59.87;101696.28;5073353;28;20109;-72
2023/08/13 04:40:37;;;;;;;6.13;1.25;;;;;;;23.39;65.66;101700.63;5072801;28;20042;-72
2023/08/13 04:43:02;;;;;;;8.23;1.80;;;;;;;24.47;60.57;101700.34;5072460;28;20043;-72
2023/08/13 04:45:28;;;;;;;2.92;1.08;;;;;;;23.80;64.01;101710.97;5054515;28;20392;-72
2023/08/13 04:47:53;;;;;;;8.18;1.50;;;;;;;23.80;63.43;101700.31;5072225;28;20052;-72
2023/08/13 04:50:19;;;;;;;5.18;1.33;;;;;;;22.26;70.81;101708.59;5051790;28;20071;-72
2023/08/13 04:52:44;;;;;;;4.18;1.38;;;;;;;23.18;66.39;101707.91;5049352;28;20139;-72
2023/08/13 04:55:09;;;;;;;5.50;1.00;;;;;;;23.78;65.10;101702.22;5073015;28;20045;-72
2023/08/13 04:57:38;;;;;;;3.22;1.05;;;;;;;23.70;63.69;101709.75;5064913;28;20051;-72
2023/08/13 05:00:04;;;;;;;7.45;1.55;;;;;;;23.18;66.51;101708.75;5091397;28;20106;-72
2023/08/13 05:02:29;;;;;;;7.28;1.83;;;;;;;23.85;63.27;101706.28;5088165;28;20492;-72
2023/08/13 05:04:55;;;;;;;6.53;1.52;;;;;;;24.33;61.68;101702.88;5071354;28;20027;-72
2023/08/13 05:07:21;;;;;;;8.68;2.03;;;;;;;23.98;64.48;101703.84;5072335;28;20058;-72
2023/08/13 05:09:46;;;;;;;8.43;1.10;;;;;;;23.80;63.50;101710.13;5080752;28;20043;-72
2023/08/13 05:12:11;;;;;;;8.15;1.33;;;;;;;24.05;62.44;101707.06;5091648;28;20065;-72
2023/08/13 05:14:37;;;;;;;5.78;1.00;;;;;;;24.16;62.07;101707.34;5091374;28;20035;-72
2023/08/13 05:17:15;;;;;;;8.45;1.50;;;;;;;23.55;65.80;101701.56;5091805;28;20032;-72
2023/08/13 05:19:40;;;;;;;8.88;1.70;;;;;;;22.90;68.89;101703.00;5090570;28;20028;-72
2023/08/13 05:22:06;;;;;;;3.58;0.90;;;;;;;24.03;62.21;101696.47;5091272;28;20024;-72
2023/08/13 05:24:31;;;;;;;5.72;1.42;;;;;;;24.03;nan;101695.59;5090507;28;20028;-72
2023/08/13 05:26:56;;;;;;;4.63;1.00;;;;;;;23.96;62.67;101692.41;5077457;28;20028;-73
2023/08/13 05:29:22;;;;;;;4.10;0.85;;;;;;;24.42;62.28;101697.03;5084093;28;20192;-72
2023/08/13 05:31:47;;;;;;;2.90;1.52;;;;;;;24.75;60.01;101692.63;5090434;28;20059;-71
2023/08/13 05:34:13;;;;;;;4.75;1.65;;;;;;;24.56;60.80;101689.16;5091299;28;20047;-72
2023/08/13 05:36:39;;;;;;;4.38;1.23;;;;;;;24.64;60.14;101693.22;5088900;28;20536;-73
2023/08/13 05:39:07;;;;;;;7.15;1.50;;;;;;;24.59;60.56;101697.94;5086709;28;20054;-72
2023/08/13 05:41:32;;;;;;;7.38;1.65;;;;;;;24.48;61.24;101702.06;5081153;28;20040;-71
2023/08/13 05:43:58;;;;;;;5.88;1.25;;;;;;;24.87;58.70;101692.78;5089863;28;20031;-73
2023/08/13 05:46:23;;;;;;;8.25;1.15;;;;;;;24.24;62.28;101703.41;5092089;28;20024;-71
2023/08/13 05:48:49;;;;;;;9.40;2.10;;;;;;;24.48;61.52;101696.72;5086102;28;20114;-72
2023/08/13 05:51:14;;;;;;;9.73;1.75;;;;;;;23.94;64.59;101706.75;5080074;28;20039;-72
2023/08/13 05:53:39;;;;;;;4.47;1.80;;;;;;;24.87;59.68;101687.44;5089634;28;20464;-72
2023/08/13 05:56:05;;;;;;;2.45;1.23;;;;;;;24.63;61.42;101699.50;5090736;28;20074;-72
2023/08/13 05:58:30;;;;;;;3.88;1.42;;;;;;;24.71;60.96;101702.63;5089787;28;20056;-71
2023/08/13 06:00:56;;;;;;;10.55;1.10;;;;;;;24.77;61.20;101702.28;5090590;28;20118;-72
2023/08/13 06:03:21;;;;;;;7.25;1.80;;;;;;;23.97;63.96;101706.59;5088190;28;20400;-72
2023/08/13 06:05:47;;;;;;;7.78;1.33;;;;;;;24.34;62.50;101704.63;5091603;28;20028;-72
2023/08/13 06:08:12;;;;;;;5.20;1.10;;;;;;;24.81;62.14;101713.66;5084968;28;20031;-72
2023/08/13 06:10:38;;;;;;;5.85;1.38;;;;;;;24.92;61.01;101716.56;5090735;28;20081;-72
2023/08/13 06:13:04;;;;;;;7.28;1.10;;;;;;;25.61;57.84;101713.53;5090011;28;20032;-72
2023/08/13 06:15:29;;;;;;;9.05;1.20;;;;;;;25.47;58.00;101712.56;5088842;28;20030;-72
2023/08/13 06:17:55;;;;;;;7.85;1.40;;;;;;;25.44;57.77;101710.03;5085827;28;20187;-72
2023/08/13 06:20:20;;;;;;;6.25;1.05;;;;;;;24.11;61.91;101721.88;5069649;28;20485;-72
2023/08/13 06:22:46;;;;;;;10.80;1.42;;;;;;;24.49;62.95;101714.47;5074956;28;20024;-72
2023/08/13 06:25:11;;;;;;;5.82;1.10;;;;;;;25.42;59.88;101706.63;5088796;28;20437;-72
2023/08/13 06:27:36;;;;;;;7.97;1.20;;;;;;;25.04;59.58;101704.31;5089523;28;20043;-71
2023/08/13 06:30:02;;;;;;;5.88;1.20;;;;;;;25.57;58.34;101702.16;5086555;28;20019;-72
2023/08/13 06:32:28;;;;;;;5.38;1.02;;;;;;;25.15;58.46;101704.56;5089942;28;20027;-72
2023/08/13 06:34:53;;;;;;;5.43;1.63;;;;;;;24.98;60.10;101699.34;5090829;28;20032;-72
2023/08/13 06:37:18;;;;;;;8.68;1.27;;;;;;;25.39;58.36;101698.78;5089976;28;20024;-72
2023/08/13 06:39:45;;;;;;;4.95;1.10;;;;;;;24.76;60.32;101695.22;5087256;28;20028;-72
2023/08/13 06:42:10;;;;;;;3.70;1.05;;;;;;;25.39;58.75;101704.13;5089389;28;20039;-72
2023/08/13 06:44:36;;;;;;;3.97;0.82;;;;;;;25.80;57.81;101706.13;5087985;28;20024;-72
2023/08/13 06:47:01;;;;;;;8.10;1.67;;;;;;;25.42;58.92;101706.63;5090351;28;20422;-73
2023/08/13 06:49:26;;;;;;;3.88;1.20;;;;;;;26.45;53.99;101710.19;5090143;28;20016;-72
2023/08/13 06:51:52;;;;;;;6.32;0.95;;;;;;;26.16;54.62;101710.22;5089655;28;20038;-72
2023/08/13 06:54:18;;;;;;;2.97;0.90;;;;;;;27.35;52.30;101702.53;5083073;28;20055;-72
2023/08/13 06:56:43;;;;;;;4.85;1.10;;;;;;;27.77;50.38;101699.75;5073792;28;20070;-72
2023/08/13 06:59:10;;;;;;;2.58;1.15;;;;;;;26.82;52.84;101698.94;5079789;28;20055;-72
2023/08/13 07:01:35;;;;;;;1.80;0.75;;;;;;;27.54;50.09;101694.13;5089166;28;20044;-72
2023/08/13 07:04:02;;;;;;;2.13;1.30;;;;;;;26.34;53.22;101708.19;5073001;28;20028;-73
2023/08/13 07:06:29;;;;;;;3.25;0.70;;;;;;;26.41;53.23;101708.66;5069081;28;20024;-72
2023/08/13 07:08:55;;;;;;;6.00;0.90;;;;;;;26.62;52.19;101700.22;5068970;28;20562;-72
2023/08/13 07:11:20;;;;;;;3.25;0.90;;;;;;;27.71;49.08;101708.22;5088894;28;20470;-72
2023/08/13 07:13:55;;;;;;;4.25;0.98;;;;;;;26.42;51.14;101707.72;5087161;28;20070;-72
2023/08/13 07:16:20;;;;;;;5.78;0.82;;;;;;;26.17;51.60;101716.41;5090006;28;20030;-72
2023/08/13 07:18:46;;;;;;;3.80;0.70;;;;;;;26.67;51.21;101711.50;5088381;28;20032;-72
2023/08/13 07:21:11;;;;;;;3.40;0.65;;;;;;;26.65;50.15;101705.38;5088244;28;20031;-72
2023/08/13 07:23:37;;;;;;;2.33;0.60;;;;;;;25.60;53.05;101710.00;5089248;28;20111;-73
2023/08/13 07:26:03;;;;;;;4.50;0.73;;;;;;;26.62;51.37;101702.88;5086980;28;20037;-71
2023/08/13 07:28:29;;;;;;;2.90;0.85;;;;;;;26.58;51.50;101716.50;5088209;28;20543;-72
2023/08/13 07:30:54;;;;;;;4.22;0.98;;;;;;;26.94;50.60;101710.69;5088002;28;20727;-72
2023/08/13 07:33:20;;;;;;;4.45;0.85;;;;;;;26.57;51.15;101713.88;5089492;28;20142;-72
2023/08/13 07:35:45;;;;;;;6.10;1.25;;;;;;;27.95;47.77;101718.25;5087737;28;20024;-72
2023/08/13 07:38:10;;;;;;;4.00;0.90;;;;;;;27.36;47.12;101717.72;5088840;28;20028;-71
2023/08/13 07:40:36;;;;;;;0.75;0.50;;;;;;;27.24;47.65;101710.47;5089749;28;20225;-71
2023/08/13 07:43:01;;;;;;;2.25;0.70;;;;;;;28.27;46.32;101711.50;5090270;28;20081;-72
2023/08/13 07:45:29;;;;;;;3.08;0.60;;;;;;;27.85;46.67;101708.16;5092818;28;20020;-72
2023/08/13 07:47:55;;;;;;;3.33;0.60;;;;;;;28.83;44.46;101720.94;5092316;28;20028;-72
2023/08/13 07:50:20;;;;;;;1.23;0.50;;;;;;;27.86;45.61;101715.25;5092302;28;20035;-73
2023/08/13 07:52:46;;;;;;;1.65;0.50;;;;;;;27.84;45.32;101714.47;5092438;28;20028;-72
2023/08/13 07:55:11;;;;;;;1.65;0.80;;;;;;;29.52;41.62;101717.59;5093386;28;20542;-72
2023/08/13 07:57:37;;;;;;;2.90;0.80;;;;;;;30.81;40.20;101705.66;5091614;28;20048;-72
2023/08/13 08:00:08;;;;;;;3.40;0.70;;;;;;;31.23;38.40;101710.31;5093591;28;20085;-73
2023/08/13 08:02:37;;;;;;;4.20;0.85;;;;;;;30.20;40.57;101719.56;5093099;28;20054;-72
2023/08/13 08:05:05;;;;;;;0.52;0.35;;;;;;;28.81;43.37;101719.34;5092351;28;20032;-72
2023/08/13 08:07:31;;;;;;;1.05;0.60;;;;;;;29.20;42.67;101715.50;5088545;28;20036;-72
2023/08/13 08:09:56;;;;;;;2.05;0.63;;;;;;;27.53;45.31;101719.28;5091042;28;20111;-72
2023/08/13 08:12:22;;;;;;;1.50;0.55;;;;;;;28.66;44.00;101713.25;5076785;28;20542;-72
2023/08/13 08:14:47;;;;;;;6.88;0.80;;;;;;;27.69;44.73;101723.59;5090224;28;20065;-72
2023/08/13 08:17:13;;;;;;;2.75;0.60;;;;;;;29.38;41.71;101720.50;5091766;28;20023;-72
2023/08/13 08:19:38;;;;;;;5.07;0.60;;;;;;;28.05;44.42;101724.72;5092593;28;20039;-72
2023/08/13 08:22:03;;;;;;;6.07;0.47;;;;;;;28.43;44.20;101718.44;5092205;28;20066;-72
2023/08/13 08:24:29;;;;;;;1.05;0.60;;;;;;;27.23;46.68;101722.16;5090134;28;20439;-72
2023/08/13 08:26:54;;;;;;;4.55;0.75;;;;;;;27.59;46.01;101721.53;5090877;28;20801;-72
2023/08/13 08:29:20;;;;;;;2.47;0.40;;;;;;;27.73;45.41;101725.09;5092226;28;20039;-73
2023/08/13 08:31:45;;;;;;;2.88;0.88;;;;;;;27.85;44.56;101716.19;5090278;28;20028;-72
2023/08/13 08:34:11;;;;;;;1.33;0.50;;;;;;;26.30;48.90;101727.25;5092034;28;20498;-72
2023/08/13 08:36:36;;;;;;;2.55;0.55;;;;;;;28.04;43.82;101712.25;5091254;28;20035;-72
2023/08/13 08:39:03;;;;;;;2.35;0.50;;;;;;;28.41;43.98;101715.00;5089930;28;20032;-73
2023/08/13 08:41:31;;;;;;;3.33;0.82;;;;;;;27.80;44.76;101723.72;5092391;28;20110;-73
2023/08/13 08:43:58;;;;;;;0.93;0.70;;;;;;;27.55;45.93;101711.13;5091337;28;20024;-72
2023/08/13 08:46:27;;;;;;;3.25;0.70;;;;;;;26.96;45.27;101714.16;5092837;28;20016;-72
2023/08/13 08:48:53;;;;;;;4.90;0.60;;;;;;;27.56;43.98;101721.75;5092278;28;20160;-72
2023/08/13 08:51:21;;;;;;;3.50;0.85;;;;;;;28.51;43.68;101721.44;5091724;28;20093;-73
2023/08/13 08:53:47;;;;;;;2.33;0.45;;;;;;;27.77;44.36;101721.25;5091078;28;20028;-73
2023/08/13 08:56:12;;;;;;;2.50;0.68;;;;;;;27.79;44.76;101713.94;5089477;28;20487;-72
2023/08/13 08:58:38;;;;;;;2.38;0.60;;;;;;;28.87;43.56;101711.66;5079348;28;20048;-72
2023/08/13 09:01:04;;;;;;;7.25;0.80;;;;;;;28.39;44.59;101711.56;5093163;28;20383;-72
2023/08/13 09:03:29;;;;;;;3.35;0.80;;;;;;;27.89;45.51;101709.66;5081099;28;20076;-72
2023/08/13 09:05:55;;;;;;;7.07;2.33;;;;;;;29.42;42.25;101712.06;5072025;28;20616;-72
2023/08/13 09:08:21;;;;;;;6.60;2.03;;;;;;;28.63;43.53;101703.56;5071625;28;20028;-72
2023/08/13 09:10:46;;;;;;;4.88;2.50;;;;;;;29.81;42.73;101706.41;5082041;28;20066;-73
2023/08/13 09:13:11;;;;;;;1.02;0.77;;;;;;;29.15;43.00;101704.22;5091164;28;20059;-73
2023/08/13 09:15:50;;;;;;;4.72;1.10;;;;;;;28.66;43.35;101703.38;5090265;28;20510;-72
2023/08/13 09:18:16;;;;;;;5.25;0.68;;;;;;;28.26;43.78;101704.38;5091406;28;20039;-72
2023/08/13 09:20:46;;;;;;;4.50;1.15;;;;;;;27.65;45.32;101706.81;5090271;28;20119;-72
2023/08/13 09:23:21;;;;;;;3.13;0.77;;;;;;;27.36;46.93;101701.63;5081963;28;20020;-72
2023/08/13 09:25:50;;;;;;;2.72;0.70;;;;;;;27.36;46.87;101700.78;5079758;28;20499;-72
2023/08/13 09:28:16;;;;;;;3.78;0.70;;;;;;;28.23;45.45;101696.56;5071044;28;20098;-72
2023/08/13 09:30:41;;;;;;;2.40;0.70;;;;;;;26.58;47.51;101691.50;5088142;28;20048;-71
2023/08/13 09:33:07;;;;;;;1.40;1.00;;;;;;;28.28;46.16;101680.09;5071272;28;20333;-72
2023/08/13 09:35:32;;;;;;;4.45;1.20;;;;;;;27.77;45.54;101689.88;5088622;28;20100;-73
2023/08/13 09:37:57;;;;;;;1.55;0.45;;;;;;;28.46;44.31;101680.56;5089829;28;20035;-74
2023/08/13 09:40:23;;;;;;;3.33;0.60;;;;;;;28.43;43.21;101673.59;5091796;28;20028;-73
2023/08/13 09:42:53;;;;;;;3.40;0.60;;;;;;;27.92;44.16;101684.41;5091672;28;20028;-72
2023/08/13 09:45:19;;;;;;;3.47;0.50;;;;;;;28.68;42.98;101673.66;5086359;28;20029;-73
2023/08/13 09:47:48;;;;;;;3.47;0.80;;;;;;;29.54;41.40;101669.88;5078042;28;20034;-74
2023/08/13 09:50:17;;;;;;;5.15;0.55;;;;;;;27.77;43.39;101679.13;5091705;28;20081;-73
2023/08/13 09:52:45;;;;;;;2.30;0.45;;;;;;;28.33;44.13;101672.56;5088755;28;20036;-73
2023/08/13 09:55:12;;;;;;;3.95;0.80;;;;;;;28.66;42.78;101667.53;5088766;28;20388;-72
2023/08/13 09:57:41;;;;;;;4.75;1.08;;;;;;;28.46;42.74;101675.19;5077158;28;20502;-72
2023/08/13 10:00:08;;;;;;;3.05;1.58;;;;;;;28.85;41.72;101667.91;5052991;28;20024;-72
2023/08/13 10:02:38;;;;;;;4.35;1.40;;;;;;;28.86;42.07;101664.22;5037254;28;20024;-72
2023/08/13 10:05:04;;;;;;;6.60;1.70;;;;;;;28.29;42.56;101667.50;5053488;28;20017;-72
2023/08/13 10:07:30;;;;;;;4.78;1.08;;;;;;;27.98;43.68;101669.66;5047904;28;20043;-72
2023/08/13 10:09:57;;;;;;;2.92;0.73;;;;;;;28.36;42.76;101668.78;5048003;28;20098;-73
2023/08/13 10:12:23;;;;;;;4.60;1.25;;;;;;;28.40;42.35;101667.59;5039381;28;20047;-72
2023/08/13 10:14:49;;;;;;;3.58;0.60;;;;;;;28.32;43.21;101667.28;5071222;28;20024;-73
2023/08/13 10:17:19;;;;;;;2.22;0.43;;;;;;;26.67;47.61;101682.00;5062965;28;20080;-73
2023/08/13 10:19:51;;;;;;;3.28;0.70;;;;;;;27.33;45.78;101679.50;5034649;28;20029;-72
2023/08/13 10:22:39;;;;;;;1.92;0.70;;;;;;;28.04;44.90;101685.38;5053635;28;20025;-72
2023/08/13 10:25:10;;;;;;;2.45;0.75;;;;;;;27.57;46.41;101676.97;5052856;28;20050;-72
2023/08/13 10:27:38;;;;;;;7.32;0.70;;;;;;;28.29;45.04;101672.88;5052565;28;20071;-72
2023/08/13 10:30:07;;;;;;;2.72;1.35;;;;;;;27.33;47.12;101663.38;5057482;28;20111;-73
2023/08/13 10:32:36;;;;;;;2.80;0.70;;;;;;;27.76;48.19;101671.19;5042799;28;20029;-73
2023/08/13 10:35:20;;;;;;;3.03;1.08;;;;;;;28.36;46.28;101674.16;5049400;28;20024;-74
2023/08/13 10:37:50;;;;;;;1.98;0.57;;;;;;;28.06;45.55;101668.19;5050113;28;20041;-73
2023/08/13 10:40:16;;;;;;;2.55;0.77;;;;;;;28.43;45.20;101664.69;5033237;28;20057;-72
2023/08/13 10:42:47;;;;;;;1.38;0.60;;;;;;;27.67;45.75;101663.75;5052621;28;20031;-72
2023/08/13 10:45:17;;;;;;;1.38;0.82;;;;;;;27.90;45.45;101665.72;5069932;28;20452;-72
2023/08/13 10:47:47;;;;;;;2.50;0.75;;;;;;;28.75;43.86;101656.09;5052151;28;20476;-72
2023/08/13 10:50:37;;;;;;;3.70;1.13;;;;;;;28.69;43.98;101657.41;5051627;28;20028;-72
2023/08/13 10:53:13;;;;;;;5.05;0.70;;;;;;;29.74;41.40;101656.69;5048856;28;20134;-72
2023/08/13 10:55:41;;;;;;;2.80;0.52;;;;;;;28.44;42.76;101661.03;5048590;28;20415;-72
2023/08/13 10:58:08;;;;;;;3.20;0.75;;;;;;;29.03;42.24;101656.69;5060995;28;20047;-71
2023/08/13 11:00:42;;;;;;;2.67;0.77;;;;;;;29.85;41.51;101656.72;5091011;28;20144;-72
2023/08/13 11:03:20;;;;;;;2.10;0.50;;;;;;;29.58;41.63;101657.00;5075389;28;20496;-72
2023/08/13 11:05:47;;;;;;;4.07;0.70;;;;;;;30.45;40.10;101651.06;5069454;28;20032;-73
2023/08/13 11:08:32;;;;;;;3.03;1.00;;;;;;;32.12;38.20;101653.13;5086850;28;20418;-73
2023/08/13 11:10:58;;;;;;;2.67;0.63;;;;;;;30.19;39.35;101651.31;5072721;28;20047;-73
2023/08/13 11:13:23;;;;;;;5.35;0.93;;;;;;;31.00;38.82;101644.78;5088581;28;20024;-73
2023/08/13 11:15:53;;;;;;;1.98;0.70;;;;;;;32.16;36.92;101632.97;5088956;28;20039;-72
2023/08/13 11:18:20;;;;;;;3.25;0.90;;;;;;;31.43;36.97;101641.13;5089518;28;20036;-73
2023/08/13 11:20:47;;;;;;;2.28;0.70;;;;;;;29.76;39.98;101643.97;5088081;28;20035;-73
2023/08/13 11:23:14;;;;;;;3.83;0.88;;;;;;;31.75;37.45;101640.19;5089433;28;20028;-73